Caswell Beach, North Carolina
Current Conditions -  °F | °C
As of 11:35 AM on Friday 28 Nov 2014 (Local Time) from KSUT Reporting Station
Clear Clear  
Wind Chill: 38°   Ceiling: Unl
Heat Index: 44°   Visibility: 10mi
Dew Point: 22°   Wind: 12mph
Humidity: 43%   Direction: 360°N
Pressure: 30.35"   Gusts: 16mph
Location:  33.9216°N, 78.1244°W
Report Text: KSUT 281635Z AUTO 36010G14KT 10SM CLR 07/M05 A3035 RMK AO2 T00651053
Loading
Personal Weather Stations






























Interactive Weather Map New forecast layout! Learn more

10-Day Weather Forecast

Advertisements
Track Severe Weather on mobile